AAL175 KPHX-MMMX
Flight info
| Callsign | AAL175 |
|---|---|
| Flight time | N/A |
| Altitude | 37000 |
| Route | STRRM1 TUS J92 VYLLA UT12 SETRO UT10 ZCL UT130 DARAN DARAN3A |
| Aircraft | A320/M-SDE3FGHIRWY/LB1 |
Departure
| Time | N/A |
|---|---|
| Airport | Phoenix Sky Harbor International Airport (KPHX) |
Arrival
| Time | 2026-05-03 21:57 |
|---|---|
| Airport | Mexico City Benito Juárez International Airport (MMMX) |
| Time | Latitude | Longitude | Altitude | Speed | Heading |
|---|---|---|---|---|---|
| 2026-05-03 20:15 | 27.28135 | -107.86187 | 37037 ft | 519 kts | 137° |
| 2026-05-03 20:15 | 27.23299 | -107.80154 | 37039 ft | 519 kts | 137° |
| 2026-05-03 20:16 | 27.18468 | -107.74137 | 37036 ft | 519 kts | 137° |
| 2026-05-03 20:16 | 27.13627 | -107.68113 | 37034 ft | 518 kts | 137° |
| 2026-05-03 20:17 | 27.08803 | -107.62122 | 37037 ft | 517 kts | 137° |
| 2026-05-03 20:17 | 27.03975 | -107.56144 | 37031 ft | 516 kts | 137° |
| 2026-05-03 20:18 | 26.99150 | -107.50180 | 37031 ft | 517 kts | 137° |
| 2026-05-03 20:18 | 26.94315 | -107.44194 | 37023 ft | 518 kts | 136° |
| 2026-05-03 20:19 | 26.89486 | -107.38221 | 37045 ft | 517 kts | 137° |
| 2026-05-03 20:19 | 26.84643 | -107.32262 | 37049 ft | 517 kts | 137° |
| 2026-05-03 20:20 | 26.79805 | -107.26318 | 37050 ft | 517 kts | 137° |
| 2026-05-03 20:20 | 26.74958 | -107.20369 | 37046 ft | 517 kts | 137° |
| 2026-05-03 20:21 | 26.70113 | -107.14419 | 37045 ft | 517 kts | 137° |
| 2026-05-03 20:21 | 26.65268 | -107.08473 | 37047 ft | 517 kts | 137° |
| 2026-05-03 20:22 | 26.60417 | -107.02537 | 37055 ft | 517 kts | 137° |
| 2026-05-03 20:22 | 26.55563 | -106.96607 | 37044 ft | 517 kts | 137° |
| 2026-05-03 20:23 | 26.50715 | -106.90681 | 37027 ft | 516 kts | 137° |
| 2026-05-03 20:23 | 26.45869 | -106.84776 | 37021 ft | 515 kts | 137° |
| 2026-05-03 20:24 | 26.41025 | -106.78884 | 37025 ft | 516 kts | 137° |
| 2026-05-03 20:24 | 26.36170 | -106.72994 | 37020 ft | 516 kts | 136° |
| 2026-05-03 20:25 | 26.31316 | -106.67120 | 37044 ft | 516 kts | 137° |
| 2026-05-03 20:25 | 26.26479 | -106.61265 | 37021 ft | 517 kts | 137° |
| 2026-05-03 20:26 | 26.21611 | -106.55376 | 37025 ft | 517 kts | 137° |
| 2026-05-03 20:26 | 26.16741 | -106.49492 | 37014 ft | 516 kts | 137° |
| 2026-05-03 20:27 | 26.11868 | -106.43621 | 37020 ft | 516 kts | 137° |
| 2026-05-03 20:27 | 26.06997 | -106.37756 | 37021 ft | 516 kts | 137° |
| 2026-05-03 20:28 | 26.02132 | -106.31886 | 37012 ft | 516 kts | 137° |
| 2026-05-03 20:28 | 25.97252 | -106.26027 | 36997 ft | 517 kts | 137° |
| 2026-05-03 20:29 | 25.92355 | -106.20162 | 36974 ft | 518 kts | 136° |
| 2026-05-03 20:29 | 25.87460 | -106.14299 | 36984 ft | 518 kts | 136° |
| 2026-05-03 20:30 | 25.82569 | -106.08430 | 36988 ft | 518 kts | 136° |
| 2026-05-03 20:30 | 25.77669 | -106.02566 | 36963 ft | 518 kts | 136° |
| 2026-05-03 20:31 | 25.72756 | -105.96717 | 36967 ft | 518 kts | 136° |
| 2026-05-03 20:31 | 25.67856 | -105.90876 | 36933 ft | 517 kts | 136° |
| 2026-05-03 20:32 | 25.62964 | -105.85039 | 36944 ft | 517 kts | 136° |
| 2026-05-03 20:32 | 25.58074 | -105.79208 | 36946 ft | 516 kts | 136° |
| 2026-05-03 20:33 | 25.53179 | -105.73395 | 36928 ft | 516 kts | 136° |
| 2026-05-03 20:33 | 25.48279 | -105.67585 | 36929 ft | 516 kts | 136° |
| 2026-05-03 20:34 | 25.43376 | -105.61772 | 36934 ft | 516 kts | 136° |
| 2026-05-03 20:34 | 25.38482 | -105.55978 | 36912 ft | 515 kts | 136° |
| 2026-05-03 20:35 | 25.33599 | -105.50196 | 36910 ft | 514 kts | 136° |
| 2026-05-03 20:35 | 25.28716 | -105.44414 | 36919 ft | 515 kts | 136° |
| 2026-05-03 20:36 | 25.23829 | -105.38639 | 36919 ft | 514 kts | 136° |
| 2026-05-03 20:36 | 25.18931 | -105.32883 | 36921 ft | 514 kts | 136° |
| 2026-05-03 20:37 | 25.14031 | -105.27127 | 36905 ft | 514 kts | 136° |
| 2026-05-03 20:37 | 25.09151 | -105.21383 | 36936 ft | 513 kts | 136° |
| 2026-05-03 20:38 | 25.04272 | -105.15639 | 36940 ft | 513 kts | 136° |
| 2026-05-03 20:38 | 24.99394 | -105.09911 | 36942 ft | 512 kts | 136° |
| 2026-05-03 20:39 | 24.94505 | -105.04196 | 36945 ft | 512 kts | 136° |
| 2026-05-03 20:39 | 24.89649 | -104.98528 | 36942 ft | 512 kts | 136° |
| 2026-05-03 20:40 | 24.84764 | -104.92826 | 36932 ft | 512 kts | 136° |
| 2026-05-03 20:40 | 24.79887 | -104.87123 | 36944 ft | 512 kts | 136° |
| 2026-05-03 20:41 | 24.75006 | -104.81421 | 36938 ft | 512 kts | 136° |
| 2026-05-03 20:41 | 24.70113 | -104.75734 | 36935 ft | 512 kts | 136° |
| 2026-05-03 20:42 | 24.65187 | -104.70017 | 36934 ft | 512 kts | 136° |
| 2026-05-03 20:42 | 24.60330 | -104.64366 | 36898 ft | 512 kts | 136° |
| 2026-05-03 20:43 | 24.55408 | -104.58647 | 36916 ft | 511 kts | 136° |
| 2026-05-03 20:43 | 24.50516 | -104.52982 | 36921 ft | 511 kts | 136° |
| 2026-05-03 20:44 | 24.45623 | -104.47329 | 36956 ft | 511 kts | 136° |
| 2026-05-03 20:44 | 24.40739 | -104.41678 | 37002 ft | 510 kts | 136° |
| 2026-05-03 20:45 | 24.35846 | -104.36034 | 37030 ft | 510 kts | 137° |
| 2026-05-03 20:45 | 24.30988 | -104.30430 | 37010 ft | 510 kts | 137° |
| 2026-05-03 20:46 | 24.26100 | -104.24800 | 37002 ft | 509 kts | 136° |
| 2026-05-03 20:46 | 24.21212 | -104.19180 | 36980 ft | 509 kts | 136° |
| 2026-05-03 20:47 | 24.16329 | -104.13573 | 36932 ft | 509 kts | 136° |
| 2026-05-03 20:47 | 24.11443 | -104.07967 | 36930 ft | 509 kts | 137° |
| 2026-05-03 20:48 | 24.06558 | -104.02367 | 36935 ft | 508 kts | 136° |
| 2026-05-03 20:48 | 24.01672 | -103.96773 | 36936 ft | 508 kts | 136° |
| 2026-05-03 20:49 | 23.96787 | -103.91185 | 36943 ft | 508 kts | 136° |
| 2026-05-03 20:49 | 23.91900 | -103.85597 | 36946 ft | 508 kts | 136° |
| 2026-05-03 20:50 | 23.87013 | -103.80019 | 36949 ft | 508 kts | 137° |
| 2026-05-03 20:50 | 23.82944 | -103.75394 | 36954 ft | 507 kts | 137° |
| 2026-05-03 20:51 | 23.78040 | -103.69851 | 36950 ft | 507 kts | 137° |
| 2026-05-03 20:51 | 23.73154 | -103.64292 | 36949 ft | 507 kts | 136° |
| 2026-05-03 20:52 | 23.68276 | -103.58736 | 36953 ft | 507 kts | 137° |
| 2026-05-03 20:52 | 23.63387 | -103.53192 | 36947 ft | 507 kts | 137° |
| 2026-05-03 20:53 | 23.58503 | -103.47651 | 36945 ft | 507 kts | 137° |
| 2026-05-03 20:53 | 23.53616 | -103.42120 | 36947 ft | 507 kts | 137° |
| 2026-05-03 20:54 | 23.48724 | -103.36598 | 36922 ft | 506 kts | 137° |
| 2026-05-03 20:54 | 23.41395 | -103.28335 | 36940 ft | 505 kts | 137° |
| 2026-05-03 20:55 | 23.36518 | -103.22840 | 36941 ft | 505 kts | 137° |
| 2026-05-03 20:55 | 23.31641 | -103.17342 | 36940 ft | 504 kts | 137° |
| 2026-05-03 20:56 | 23.26768 | -103.11861 | 36944 ft | 504 kts | 137° |
| 2026-05-03 20:56 | 23.21893 | -103.06391 | 36944 ft | 504 kts | 137° |
| 2026-05-03 20:57 | 23.17014 | -103.00923 | 36934 ft | 503 kts | 137° |
| 2026-05-03 20:57 | 23.12146 | -102.95473 | 36981 ft | 502 kts | 137° |
| 2026-05-03 20:58 | 23.07280 | -102.90029 | 37079 ft | 502 kts | 137° |
| 2026-05-03 20:58 | 23.02418 | -102.84593 | 37178 ft | 501 kts | 137° |
| 2026-05-03 20:59 | 22.97554 | -102.79167 | 37274 ft | 501 kts | 137° |
| 2026-05-03 20:59 | 22.92694 | -102.73743 | 37321 ft | 501 kts | 137° |
| 2026-05-03 21:00 | 22.88564 | -102.69363 | 37304 ft | 497 kts | 144° |
| 2026-05-03 21:00 | 22.81958 | -102.64425 | 37319 ft | 493 kts | 150° |
| 2026-05-03 21:01 | 22.76250 | -102.60321 | 37215 ft | 492 kts | 150° |
| 2026-05-03 21:01 | 22.70554 | -102.56222 | 37130 ft | 491 kts | 150° |
| 2026-05-03 21:02 | 22.64857 | -102.52133 | 37043 ft | 491 kts | 150° |
| 2026-05-03 21:02 | 22.59198 | -102.48075 | 36949 ft | 490 kts | 150° |
| 2026-05-03 21:03 | 22.53520 | -102.43999 | 36959 ft | 490 kts | 150° |
| 2026-05-03 21:03 | 22.47845 | -102.39929 | 36974 ft | 489 kts | 150° |
| 2026-05-03 21:04 | 22.42179 | -102.35861 | 36961 ft | 489 kts | 150° |
| 2026-05-03 21:04 | 22.36510 | -102.31802 | 36950 ft | 489 kts | 150° |
| 2026-05-03 21:05 | 22.30834 | -102.27755 | 36922 ft | 489 kts | 150° |
| 2026-05-03 21:05 | 22.25169 | -102.23710 | 36938 ft | 487 kts | 150° |
| 2026-05-03 21:06 | 22.19522 | -102.19669 | 36941 ft | 487 kts | 150° |
| 2026-05-03 21:06 | 22.13872 | -102.15645 | 36951 ft | 486 kts | 150° |
| 2026-05-03 21:07 | 22.08226 | -102.11632 | 36947 ft | 486 kts | 150° |
| 2026-05-03 21:07 | 22.02587 | -102.07621 | 36946 ft | 486 kts | 150° |
| 2026-05-03 21:08 | 21.96949 | -102.03616 | 36950 ft | 485 kts | 150° |
| 2026-05-03 21:08 | 21.91321 | -101.99615 | 36955 ft | 484 kts | 150° |
| 2026-05-03 21:09 | 21.85697 | -101.95626 | 36951 ft | 484 kts | 150° |
| 2026-05-03 21:09 | 21.80068 | -101.91649 | 36951 ft | 484 kts | 150° |
| 2026-05-03 21:10 | 21.74449 | -101.87671 | 36958 ft | 484 kts | 150° |
| 2026-05-03 21:10 | 21.68830 | -101.83693 | 36948 ft | 483 kts | 150° |
| 2026-05-03 21:11 | 21.63219 | -101.79733 | 36958 ft | 483 kts | 150° |
| 2026-05-03 21:11 | 21.57722 | -101.75584 | 36955 ft | 485 kts | 141° |
| 2026-05-03 21:12 | 21.53368 | -101.70025 | 36959 ft | 490 kts | 124° |
| 2026-05-03 21:12 | 21.49624 | -101.63914 | 36956 ft | 490 kts | 125° |
| 2026-05-03 21:13 | 21.45862 | -101.57821 | 36963 ft | 490 kts | 125° |
| 2026-05-03 21:13 | 21.42097 | -101.51730 | 36963 ft | 490 kts | 125° |
| 2026-05-03 21:14 | 21.38335 | -101.45635 | 36959 ft | 490 kts | 125° |
| 2026-05-03 21:14 | 21.34578 | -101.39545 | 36965 ft | 489 kts | 125° |
| 2026-05-03 21:15 | 21.30845 | -101.33509 | 36966 ft | 489 kts | 125° |
| 2026-05-03 21:15 | 21.27082 | -101.27438 | 36963 ft | 489 kts | 125° |
| 2026-05-03 21:16 | 21.23316 | -101.21368 | 36961 ft | 489 kts | 125° |
| 2026-05-03 21:16 | 21.19550 | -101.15307 | 36957 ft | 488 kts | 125° |
| 2026-05-03 21:17 | 21.16399 | -101.10227 | 36955 ft | 489 kts | 125° |
| 2026-05-03 21:17 | 21.12032 | -101.03181 | 36954 ft | 489 kts | 125° |
| 2026-05-03 21:18 | 21.08264 | -100.97119 | 36946 ft | 489 kts | 125° |
| 2026-05-03 21:18 | 21.04367 | -100.91167 | 36944 ft | 488 kts | 129° |
| 2026-05-03 21:19 | 21.00202 | -100.85437 | 36946 ft | 487 kts | 130° |
| 2026-05-03 21:19 | 20.95989 | -100.79755 | 36947 ft | 487 kts | 130° |
| 2026-05-03 21:20 | 20.91842 | -100.74015 | 36939 ft | 488 kts | 129° |
| 2026-05-03 21:20 | 20.87729 | -100.68239 | 36940 ft | 488 kts | 129° |
| 2026-05-03 21:21 | 20.83617 | -100.62469 | 36942 ft | 488 kts | 129° |
| 2026-05-03 21:21 | 20.79490 | -100.56714 | 36932 ft | 487 kts | 130° |
| 2026-05-03 21:22 | 20.75359 | -100.50975 | 36943 ft | 487 kts | 129° |
| 2026-05-03 21:22 | 20.71233 | -100.45259 | 36944 ft | 486 kts | 129° |
| 2026-05-03 21:23 | 20.67107 | -100.39542 | 36912 ft | 486 kts | 129° |
| 2026-05-03 21:23 | 20.65046 | -100.36680 | 36651 ft | 486 kts | 129° |
| 2026-05-03 21:23 | 20.62987 | -100.33822 | 36403 ft | 486 kts | 129° |
| 2026-05-03 21:24 | 20.58854 | -100.28091 | 36265 ft | 488 kts | 129° |
| 2026-05-03 21:24 | 20.56778 | -100.25216 | 35547 ft | 493 kts | 128° |
| 2026-05-03 21:24 | 20.54668 | -100.22299 | 34678 ft | 499 kts | 128° |
| 2026-05-03 21:25 | 20.52533 | -100.19354 | 33743 ft | 505 kts | 127° |
| 2026-05-03 21:25 | 20.50378 | -100.16383 | 32776 ft | 508 kts | 128° |
| 2026-05-03 21:25 | 20.48214 | -100.13395 | 31813 ft | 509 kts | 127° |
| 2026-05-03 21:25 | 20.46070 | -100.10431 | 30875 ft | 500 kts | 128° |
| 2026-05-03 21:26 | 20.43967 | -100.07522 | 29949 ft | 495 kts | 128° |
| 2026-05-03 21:26 | 20.41869 | -100.04621 | 29354 ft | 490 kts | 127° |
| 2026-05-03 21:26 | 20.39804 | -100.01770 | 28823 ft | 484 kts | 127° |
| 2026-05-03 21:26 | 20.37752 | -99.98942 | 28048 ft | 481 kts | 127° |
| 2026-05-03 21:27 | 20.35710 | -99.96131 | 27420 ft | 478 kts | 127° |
| 2026-05-03 21:27 | 20.33705 | -99.93371 | 26789 ft | 476 kts | 127° |
| 2026-05-03 21:27 | 20.31660 | -99.90556 | 26142 ft | 473 kts | 127° |
| 2026-05-03 21:27 | 20.29675 | -99.87827 | 25534 ft | 471 kts | 127° |
| 2026-05-03 21:28 | 20.27673 | -99.85079 | 24924 ft | 469 kts | 127° |
| 2026-05-03 21:28 | 20.25678 | -99.82343 | 24327 ft | 466 kts | 126° |
| 2026-05-03 21:28 | 20.23633 | -99.79678 | 23736 ft | 464 kts | 133° |
| 2026-05-03 21:28 | 20.21196 | -99.77444 | 23106 ft | 462 kts | 145° |
| 2026-05-03 21:29 | 20.18411 | -99.75797 | 22528 ft | 457 kts | 157° |
| 2026-05-03 21:29 | 20.15398 | -99.74791 | 21918 ft | 451 kts | 169° |
| 2026-05-03 21:29 | 20.12328 | -99.74191 | 21359 ft | 446 kts | 171° |
| 2026-05-03 21:29 | 20.09304 | -99.73600 | 20810 ft | 437 kts | 170° |
| 2026-05-03 21:30 | 20.06320 | -99.73012 | 20196 ft | 434 kts | 170° |
| 2026-05-03 21:30 | 20.03377 | -99.72427 | 19686 ft | 429 kts | 171° |
| 2026-05-03 21:30 | 20.00434 | -99.71839 | 18955 ft | 432 kts | 171° |
| 2026-05-03 21:30 | 19.97478 | -99.71249 | 18210 ft | 432 kts | 171° |
| 2026-05-03 21:31 | 19.94524 | -99.70658 | 17463 ft | 429 kts | 171° |
| 2026-05-03 21:31 | 19.91681 | -99.70088 | 17155 ft | 402 kts | 170° |
| 2026-05-03 21:31 | 19.88995 | -99.69550 | 16717 ft | 390 kts | 171° |
| 2026-05-03 21:31 | 19.86396 | -99.68941 | 16629 ft | 375 kts | 161° |
| 2026-05-03 21:32 | 19.84115 | -99.67747 | 16643 ft | 358 kts | 146° |
| 2026-05-03 21:32 | 19.82253 | -99.66079 | 16644 ft | 344 kts | 132° |
| 2026-05-03 21:32 | 19.80849 | -99.64049 | 16672 ft | 342 kts | 120° |
| 2026-05-03 21:32 | 19.79658 | -99.61877 | 16657 ft | 336 kts | 114° |
| 2026-05-03 21:33 | 19.79140 | -99.59557 | 16652 ft | 316 kts | 84° |
| 2026-05-03 21:33 | 19.79702 | -99.57380 | 16624 ft | 304 kts | 61° |
| 2026-05-03 21:33 | 19.80765 | -99.55456 | 16667 ft | 301 kts | 47° |
| 2026-05-03 21:33 | 19.82183 | -99.53828 | 16644 ft | 301 kts | 44° |
| 2026-05-03 21:34 | 19.83634 | -99.52230 | 16640 ft | 300 kts | 43° |
| 2026-05-03 21:34 | 19.85092 | -99.50638 | 16643 ft | 302 kts | 44° |
| 2026-05-03 21:34 | 19.86551 | -99.49035 | 16616 ft | 302 kts | 45° |
| 2026-05-03 21:34 | 19.87685 | -99.47165 | 16363 ft | 303 kts | 68° |
| 2026-05-03 21:35 | 19.88064 | -99.44981 | 16123 ft | 302 kts | 92° |
| 2026-05-03 21:35 | 19.87862 | -99.43527 | 15964 ft | 300 kts | 107° |
| 2026-05-03 21:35 | 19.86932 | -99.41575 | 15724 ft | 296 kts | 130° |
| 2026-05-03 21:35 | 19.85411 | -99.40156 | 15480 ft | 289 kts | 153° |
| 2026-05-03 21:36 | 19.83590 | -99.39308 | 15240 ft | 284 kts | 160° |
| 2026-05-03 21:36 | 19.81765 | -99.38529 | 15022 ft | 281 kts | 160° |
| 2026-05-03 21:36 | 19.79965 | -99.37757 | 14793 ft | 278 kts | 159° |
| 2026-05-03 21:36 | 19.78185 | -99.36992 | 14587 ft | 274 kts | 159° |
| 2026-05-03 21:37 | 19.76426 | -99.36235 | 14373 ft | 272 kts | 159° |
| 2026-05-03 21:37 | 19.74685 | -99.35481 | 14156 ft | 269 kts | 159° |
| 2026-05-03 21:37 | 19.72966 | -99.34737 | 13939 ft | 266 kts | 159° |
| 2026-05-03 21:37 | 19.71261 | -99.34000 | 13758 ft | 262 kts | 159° |
| 2026-05-03 21:38 | 19.69572 | -99.33273 | 13714 ft | 262 kts | 159° |
| 2026-05-03 21:38 | 19.67879 | -99.32543 | 13685 ft | 263 kts | 159° |
| 2026-05-03 21:38 | 19.66180 | -99.31813 | 13704 ft | 263 kts | 159° |
| 2026-05-03 21:38 | 19.64481 | -99.31086 | 13721 ft | 263 kts | 159° |
| 2026-05-03 21:39 | 19.62782 | -99.30357 | 13739 ft | 263 kts | 159° |
| 2026-05-03 21:39 | 19.61086 | -99.29627 | 13756 ft | 263 kts | 159° |
| 2026-05-03 21:39 | 19.59443 | -99.28773 | 13759 ft | 265 kts | 148° |
| 2026-05-03 21:39 | 19.57931 | -99.27623 | 13410 ft | 269 kts | 144° |
| 2026-05-03 21:40 | 19.56423 | -99.26444 | 13108 ft | 270 kts | 144° |
| 2026-05-03 21:40 | 19.54910 | -99.25263 | 12830 ft | 271 kts | 144° |
| 2026-05-03 21:40 | 19.53325 | -99.24160 | 12559 ft | 274 kts | 157° |
| 2026-05-03 21:40 | 19.51493 | -99.23555 | 12215 ft | 278 kts | 174° |
| 2026-05-03 21:41 | 19.49568 | -99.23470 | 11909 ft | 275 kts | 180° |
| 2026-05-03 21:41 | 19.47670 | -99.23442 | 11597 ft | 271 kts | 181° |
| 2026-05-03 21:41 | 19.45799 | -99.23412 | 11287 ft | 265 kts | 180° |
| 2026-05-03 21:41 | 19.43995 | -99.23386 | 10978 ft | 255 kts | 181° |
| 2026-05-03 21:42 | 19.42210 | -99.23363 | 10742 ft | 257 kts | 181° |
| 2026-05-03 21:42 | 19.40397 | -99.23307 | 10425 ft | 264 kts | 174° |
| 2026-05-03 21:42 | 19.38649 | -99.22647 | 10014 ft | 278 kts | 146° |
| 2026-05-03 21:42 | 19.37501 | -99.21049 | 9954 ft | 272 kts | 112° |
| 2026-05-03 21:43 | 19.37242 | -99.19063 | 9596 ft | 274 kts | 84° |
| 2026-05-03 21:43 | 19.37860 | -99.17201 | 9329 ft | 266 kts | 59° |
| 2026-05-03 21:43 | 19.38797 | -99.15560 | 9097 ft | 254 kts | 59° |
| 2026-05-03 21:43 | 19.39654 | -99.14020 | 8848 ft | 234 kts | 59° |
| 2026-05-03 21:44 | 19.40443 | -99.12613 | 8510 ft | 215 kts | 59° |
| 2026-05-03 21:44 | 19.41166 | -99.11326 | 8194 ft | 189 kts | 61° |
| 2026-05-03 21:44 | 19.41800 | -99.10196 | 7785 ft | 166 kts | 63° |
| 2026-05-03 21:44 | 19.42376 | -99.09166 | 7571 ft | 159 kts | 65° |
| 2026-05-03 21:45 | 19.42924 | -99.08185 | 7369 ft | 152 kts | 63° |
| 2026-05-03 21:45 | 19.43445 | -99.07252 | 7340 ft | 141 kts | 64° |
| 2026-05-03 21:45 | 19.43959 | -99.06331 | 7860 ft | 149 kts | 64° |
| 2026-05-03 21:45 | 19.44492 | -99.05354 | 8622 ft | 157 kts | 63° |
| 2026-05-03 21:46 | 19.45002 | -99.04324 | 9129 ft | 161 kts | 63° |
| 2026-05-03 21:46 | 19.45517 | -99.03252 | 9249 ft | 165 kts | 64° |
| 2026-05-03 21:46 | 19.46044 | -99.02151 | 9336 ft | 169 kts | 64° |
| 2026-05-03 21:46 | 19.46586 | -99.01031 | 9425 ft | 174 kts | 64° |
| 2026-05-03 21:47 | 19.47215 | -98.99922 | 9502 ft | 179 kts | 48° |
| 2026-05-03 21:47 | 19.48289 | -98.99273 | 9579 ft | 182 kts | 9° |
| 2026-05-03 21:47 | 19.49528 | -98.99433 | 9650 ft | 182 kts | 330° |
| 2026-05-03 21:47 | 19.50427 | -99.00343 | 9736 ft | 182 kts | 294° |
| 2026-05-03 21:48 | 19.50706 | -99.01639 | 9842 ft | 183 kts | 272° |
| 2026-05-03 21:48 | 19.50830 | -99.03012 | 9946 ft | 195 kts | 272° |
| 2026-05-03 21:48 | 19.50961 | -99.04503 | 10092 ft | 213 kts | 273° |
| 2026-05-03 21:48 | 19.51105 | -99.06139 | 10288 ft | 231 kts | 273° |
| 2026-05-03 21:49 | 19.51260 | -99.07871 | 10632 ft | 240 kts | 273° |
| 2026-05-03 21:49 | 19.51423 | -99.09644 | 11099 ft | 243 kts | 275° |
| 2026-05-03 21:49 | 19.51588 | -99.11423 | 11697 ft | 242 kts | 276° |
| 2026-05-03 21:49 | 19.51753 | -99.13195 | 12431 ft | 242 kts | 276° |
| 2026-05-03 21:50 | 19.51921 | -99.14990 | 12809 ft | 244 kts | 277° |
| 2026-05-03 21:50 | 19.52087 | -99.16777 | 12895 ft | 242 kts | 276° |
| 2026-05-03 21:50 | 19.52254 | -99.18548 | 12891 ft | 239 kts | 276° |
| 2026-05-03 21:50 | 19.52419 | -99.20291 | 12778 ft | 239 kts | 276° |
| 2026-05-03 21:51 | 19.52457 | -99.22078 | 12176 ft | 249 kts | 257° |
| 2026-05-03 21:51 | 19.51593 | -99.23677 | 11530 ft | 259 kts | 220° |
| 2026-05-03 21:51 | 19.49935 | -99.24463 | 10889 ft | 271 kts | 189° |
| 2026-05-03 21:51 | 19.48045 | -99.24441 | 10353 ft | 270 kts | 176° |
| 2026-05-03 21:52 | 19.46214 | -99.24154 | 9684 ft | 263 kts | 173° |
| 2026-05-03 21:52 | 19.44432 | -99.23855 | 9250 ft | 253 kts | 173° |
| 2026-05-03 21:52 | 19.42754 | -99.23635 | 9131 ft | 233 kts | 174° |
| 2026-05-03 21:52 | 19.41204 | -99.23495 | 9113 ft | 210 kts | 176° |
| 2026-05-03 21:53 | 19.39844 | -99.23256 | 9072 ft | 189 kts | 160° |
| 2026-05-03 21:53 | 19.38765 | -99.22637 | 9049 ft | 171 kts | 142° |
| 2026-05-03 21:53 | 19.37961 | -99.21745 | 9026 ft | 165 kts | 125° |
| 2026-05-03 21:53 | 19.37451 | -99.20671 | 9006 ft | 163 kts | 108° |
| 2026-05-03 21:54 | 19.37257 | -99.19496 | 8992 ft | 162 kts | 91° |
| 2026-05-03 21:54 | 19.37391 | -99.18314 | 8977 ft | 162 kts | 74° |
| 2026-05-03 21:54 | 19.37846 | -99.17230 | 8963 ft | 162 kts | 59° |
| 2026-05-03 21:54 | 19.38424 | -99.16205 | 8915 ft | 162 kts | 59° |
| 2026-05-03 21:55 | 19.38999 | -99.15181 | 8775 ft | 162 kts | 59° |
| 2026-05-03 21:55 | 19.39573 | -99.14159 | 8564 ft | 161 kts | 59° |
| 2026-05-03 21:55 | 19.40140 | -99.13146 | 8412 ft | 159 kts | 60° |
| 2026-05-03 21:55 | 19.40702 | -99.12127 | 8254 ft | 159 kts | 59° |
| 2026-05-03 21:56 | 19.41268 | -99.11128 | 8011 ft | 158 kts | 64° |
| 2026-05-03 21:56 | 19.41827 | -99.10145 | 7757 ft | 154 kts | 63° |
| 2026-05-03 21:56 | 19.42381 | -99.09160 | 7559 ft | 155 kts | 64° |
| 2026-05-03 21:56 | 19.42923 | -99.08193 | 7366 ft | 151 kts | 64° |
| 2026-05-03 21:57 | 19.43416 | -99.07298 | 7303 ft | 120 kts | 61° |
| 2026-05-03 21:57 | 19.43692 | -99.06817 | 7303 ft | 33 kts | 59° |
| 2026-05-03 21:57 | 19.43768 | -99.06681 | 7303 ft | 23 kts | 60° |
| 2026-05-03 21:57 | 19.43861 | -99.06541 | 7303 ft | 16 kts | 38° |
| 2026-05-03 21:58 | 19.43955 | -99.06539 | 7303 ft | 15 kts | 304° |
| 2026-05-03 21:58 | 19.43963 | -99.06645 | 7303 ft | 15 kts | 268° |
| 2026-05-03 21:58 | 19.43960 | -99.06758 | 7303 ft | 16 kts | 272° |
| 2026-05-03 21:58 | 19.44023 | -99.06839 | 7304 ft | 15 kts | 332° |
| 2026-05-03 21:59 | 19.44084 | -99.06920 | 7303 ft | 16 kts | 260° |
| 2026-05-03 21:59 | 19.44030 | -99.07021 | 7303 ft | 16 kts | 238° |
| 2026-05-03 21:59 | 19.43970 | -99.07128 | 7303 ft | 17 kts | 239° |
| 2026-05-03 21:59 | 19.43905 | -99.07242 | 7303 ft | 19 kts | 238° |
| 2026-05-03 22:00 | 19.43837 | -99.07362 | 7303 ft | 20 kts | 240° |
| 2026-05-03 22:00 | 19.43767 | -99.07492 | 7303 ft | 21 kts | 240° |
| 2026-05-03 22:00 | 19.43692 | -99.07617 | 7303 ft | 19 kts | 236° |
| 2026-05-03 22:00 | 19.43637 | -99.07718 | 7303 ft | 14 kts | 239° |
| 2026-05-03 22:01 | 19.43609 | -99.07818 | 7303 ft | 15 kts | 275° |
| 2026-05-03 22:01 | 19.43642 | -99.07898 | 7303 ft | 5 kts | 293° |
| 2026-05-03 22:01 | 19.43644 | -99.07902 | 7303 ft | 0 kts | 292° |